Time;durP1;ratioP1;P1;durP2;ratioP2;P2;SDS_P1;SDS_P2;PMS_P1;PMS_P2;Temp;Humidity;BMP_temperature;BMP_pressure;BME280_temperature;BME280_humidity;BME280_pressure;Samples;Min_cycle;Max_cycle;Signal;HPM_P1;HPM_P2
2022/12/12 00:00:31;;;;;;;25.40;22.00;;;15.60;47.20;;;;;;5013821;28;20617;-55
2022/12/12 00:02:58;;;;;;;25.77;22.98;;;15.60;47.40;;;;;;5012054;28;20209;-55
2022/12/12 00:05:28;;;;;;;26.30;23.45;;;15.60;47.40;;;;;;5012153;28;20673;-58
2022/12/12 00:07:55;;;;;;;25.52;22.55;;;15.50;47.50;;;;;;5012392;28;20213;-58
2022/12/12 00:10:22;;;;;;;25.77;22.67;;;15.50;47.40;;;;;;5011861;28;20703;-58
2022/12/12 00:12:50;;;;;;;26.77;22.90;;;15.50;47.50;;;;;;5012017;28;20197;-58
2022/12/12 00:15:17;;;;;;;25.42;22.48;;;15.50;47.50;;;;;;5015109;28;20563;-58
2022/12/12 00:17:44;;;;;;;24.45;21.77;;;15.50;47.70;;;;;;5016446;28;20201;-58
2022/12/12 00:20:12;;;;;;;23.65;21.13;;;15.40;47.50;;;;;;5017364;28;20205;-59
2022/12/12 00:22:40;;;;;;;25.00;21.85;;;15.40;47.50;;;;;;5015699;28;20271;-58
2022/12/12 00:25:08;;;;;;;25.88;22.73;;;15.40;47.50;;;;;;5015545;28;20572;-58
2022/12/12 00:27:35;;;;;;;24.52;21.75;;;15.40;47.60;;;;;;5015478;28;20193;-58
2022/12/12 00:30:02;;;;;;;24.42;21.63;;;15.40;47.60;;;;;;5016657;28;21618;-58
2022/12/12 00:32:30;;;;;;;25.20;21.70;;;15.30;48.10;;;;;;5015530;28;20215;-59
2022/12/12 00:34:57;;;;;;;22.58;20.17;;;15.30;47.60;;;;;;5015382;28;20208;-59
2022/12/12 00:37:24;;;;;;;24.83;20.75;;;15.30;47.60;;;;;;5015309;28;20204;-55
2022/12/12 00:39:53;;;;;;;22.98;20.40;;;15.20;47.50;;;;;;5015637;28;20200;-57
2022/12/12 00:42:20;;;;;;;22.13;19.77;;;15.20;47.60;;;;;;5016658;28;20212;-55
2022/12/12 00:44:48;;;;;;;23.98;20.83;;;15.20;47.60;;;;;;5016253;28;20192;-55
2022/12/12 00:47:15;;;;;;;22.80;20.40;;;15.20;47.70;;;;;;5016309;28;20258;-58
2022/12/12 00:49:43;;;;;;;21.35;19.05;;;15.10;47.50;;;;;;5015003;28;20205;-58
2022/12/12 00:52:10;;;;;;;22.30;19.83;;;15.10;47.40;;;;;;5015121;28;20291;-58
2022/12/12 00:54:38;;;;;;;21.55;19.30;;;15.20;47.50;;;;;;5016116;28;20193;-58
2022/12/12 00:57:07;;;;;;;22.00;19.70;;;15.10;47.50;;;;;;5014869;28;20662;-58
2022/12/12 00:59:34;;;;;;;21.75;19.45;;;15.10;47.60;;;;;;5016346;28;20626;-58
2022/12/12 01:02:01;;;;;;;22.42;19.08;;;15.10;47.70;;;;;;5014840;28;20216;-54
2022/12/12 01:04:28;;;;;;;21.52;19.23;;;15.00;48.30;;;;;;5014632;28;20200;-55
2022/12/12 01:06:55;;;;;;;22.05;19.63;;;15.00;48.10;;;;;;5016006;28;20216;-58
2022/12/12 01:09:23;;;;;;;21.15;18.73;;;15.00;47.50;;;;;;5014963;28;20197;-59
2022/12/12 01:11:50;;;;;;;22.88;19.50;;;15.00;47.70;;;;;;5014398;28;20323;-58
2022/12/12 01:14:19;;;;;;;19.40;17.40;;;15.00;47.60;;;;;;5015995;28;20221;-58
2022/12/12 01:16:46;;;;;;;20.42;18.20;;;15.00;47.70;;;;;;5014517;28;20192;-58
2022/12/12 01:19:14;;;;;;;20.52;18.30;;;15.00;48.20;;;;;;5016190;28;20272;-58
2022/12/12 01:21:41;;;;;;;21.17;18.90;;;15.00;47.50;;;;;;5015747;28;20239;-58
2022/12/12 01:24:08;;;;;;;18.98;16.98;;;14.90;47.60;;;;;;5015688;28;20193;-58
2022/12/12 01:26:36;;;;;;;19.98;17.67;;;14.90;47.50;;;;;;5015242;28;20185;-58
2022/12/12 01:29:03;;;;;;;20.55;18.38;;;14.90;47.60;;;;;;5014456;28;20205;-58
2022/12/12 01:31:32;;;;;;;20.48;18.38;;;14.90;47.60;;;;;;5015718;28;20213;-57
2022/12/12 01:33:59;;;;;;;19.98;17.83;;;14.90;47.60;;;;;;5016195;28;20207;-58
2022/12/12 01:36:27;;;;;;;21.95;17.98;;;14.80;47.50;;;;;;5017845;28;20201;-58
2022/12/12 01:38:55;;;;;;;21.08;17.42;;;14.80;47.50;;;;;;5014412;28;20193;-53
2022/12/12 01:41:23;;;;;;;19.13;17.13;;;14.80;47.50;;;;;;5014676;28;20217;-54
2022/12/12 01:43:50;;;;;;;18.98;16.98;;;14.80;47.70;;;;;;5014247;28;20633;-54
2022/12/12 01:46:43;;;;;;;20.30;17.42;;;14.80;47.70;;;;;;5016218;28;20191;-57
2022/12/12 01:49:18;;;;;;;17.52;15.68;;;14.80;47.50;;;;;;5015761;28;20208;-57
2022/12/12 01:51:46;;;;;;;18.70;16.58;;;14.80;47.70;;;;;;5017306;28;20763;-57
2022/12/12 01:54:15;;;;;;;19.23;17.17;;;14.80;47.80;;;;;;5020399;28;20310;-57
2022/12/12 01:56:43;;;;;;;19.90;16.92;;;14.70;47.60;;;;;;5014110;28;20259;-57
2022/12/12 01:59:11;;;;;;;17.60;15.80;;;14.70;47.70;;;;;;5014117;28;20203;-57
2022/12/12 02:01:39;;;;;;;19.35;16.75;;;14.70;47.80;;;;;;5015039;28;20625;-57
2022/12/12 02:04:08;;;;;;;18.15;16.25;;;14.60;47.70;;;;;;5013739;28;20275;-56
2022/12/12 02:06:35;;;;;;;17.20;15.40;;;14.60;47.50;;;;;;5013554;28;20197;-56
2022/12/12 02:09:04;;;;;;;17.65;15.75;;;14.60;47.50;;;;;;5013727;28;20294;-57
2022/12/12 02:11:34;;;;;;;17.13;15.35;;;14.60;47.70;;;;;;5013327;28;20216;-57
2022/12/12 02:14:02;;;;;;;17.20;15.10;;;14.60;47.70;;;;;;5014325;28;20208;-56
2022/12/12 02:16:54;;;;;;;16.50;14.75;;;14.60;47.70;;;;;;5013317;28;20200;-55
2022/12/12 02:19:54;;;;;;;16.48;14.80;;;14.50;47.50;;;;;;5013059;28;20205;-53
2022/12/12 02:22:29;;;;;;;16.63;14.90;;;14.50;47.60;;;;;;4990199;28;20196;-53
2022/12/12 02:25:05;;;;;;;16.38;14.68;;;14.50;47.60;;;;;;5013216;28;20225;-53
2022/12/12 02:27:50;;;;;;;16.60;14.90;;;14.50;47.60;;;;;;5013060;28;20262;-54
2022/12/12 02:30:20;;;;;;;16.17;14.50;;;14.50;47.80;;;;;;5013160;28;20248;-53
2022/12/12 02:33:06;;;;;;;15.90;13.98;;;14.50;47.60;;;;;;5013080;28;20205;-53
2022/12/12 02:35:40;;;;;;;16.50;14.73;;;14.50;47.60;;;;;;5013804;28;20201;-53
2022/12/12 02:38:13;;;;;;;15.65;13.80;;;14.50;47.70;;;;;;5013968;28;20177;-53
2022/12/12 02:40:48;;;;;;;15.18;13.57;;;14.40;47.70;;;;;;5013989;28;20205;-53
2022/12/12 02:43:19;;;;;;;15.88;14.18;;;14.40;47.80;;;;;;5014420;28;20625;-53
2022/12/12 02:45:47;;;;;;;15.55;13.85;;;14.40;47.60;;;;;;5012920;28;20197;-57
2022/12/12 02:48:19;;;;;;;15.43;13.63;;;14.30;47.50;;;;;;5014158;28;20196;-57
2022/12/12 02:50:47;;;;;;;14.27;12.77;;;14.30;47.60;;;;;;5012847;28;20576;-55
2022/12/12 02:53:18;;;;;;;14.68;13.18;;;14.30;47.70;;;;;;5014184;28;20243;-52
2022/12/12 02:55:49;;;;;;;14.52;13.02;;;14.30;47.80;;;;;;5013092;28;20589;-52
2022/12/12 02:58:17;;;;;;;14.60;13.10;;;14.30;47.70;;;;;;5013800;28;20205;-52
2022/12/12 03:00:49;;;;;;;14.02;12.57;;;14.30;47.60;;;;;;5012851;28;20234;-52
2022/12/12 03:09:20;;;;;;;13.75;12.30;;;14.20;47.60;;;;;;5012509;28;20662;-52
2022/12/12 03:11:54;;;;;;;13.77;12.27;;;14.20;47.70;;;;;;5013235;28;20212;-52
2022/12/12 03:14:24;;;;;;;13.27;11.88;;;14.20;47.80;;;;;;5012325;28;20195;-52
2022/12/12 03:17:05;;;;;;;13.45;12.05;;;14.10;47.70;;;;;;5012288;28;20294;-51
2022/12/12 03:19:38;;;;;;;13.38;11.98;;;14.10;47.70;;;;;;5012380;28;20200;-52
2022/12/12 03:22:08;;;;;;;13.40;12.00;;;14.10;47.70;;;;;;5013538;28;20220;-51
2022/12/12 03:24:39;;;;;;;13.48;12.07;;;14.10;47.70;;;;;;5012496;28;20193;-52
2022/12/12 03:27:09;;;;;;;13.82;12.25;;;14.10;47.80;;;;;;5013908;28;20212;-52
2022/12/12 03:29:39;;;;;;;13.35;11.90;;;14.00;47.70;;;;;;5012321;28;20197;-52
2022/12/12 03:32:08;;;;;;;12.68;11.43;;;14.00;47.70;;;;;;5012240;28;20220;-52
2022/12/12 03:34:39;;;;;;;12.95;11.60;;;14.00;48.10;;;;;;5013336;28;20196;-52
2022/12/12 03:37:10;;;;;;;13.43;12.02;;;14.00;47.40;;;;;;5012499;28;20259;-52
2022/12/12 03:39:40;;;;;;;13.07;11.70;;;14.00;47.70;;;;;;5012063;28;20658;-52
2022/12/12 03:42:11;;;;;;;12.35;10.70;;;13.90;47.50;;;;;;5012841;28;20275;-51
2022/12/12 03:44:41;;;;;;;12.20;10.93;;;13.90;47.70;;;;;;5013479;28;20216;-52
2022/12/12 03:47:11;;;;;;;12.90;11.50;;;13.90;47.60;;;;;;5013418;28;20184;-52
2022/12/12 03:49:41;;;;;;;12.45;11.13;;;13.90;47.70;;;;;;5013870;28;20223;-52
2022/12/12 03:52:11;;;;;;;12.32;11.13;;;13.80;47.60;;;;;;5017269;28;20203;-52
2022/12/12 03:54:41;;;;;;;12.00;10.80;;;13.80;47.50;;;;;;5015856;28;20207;-52
2022/12/12 03:57:12;;;;;;;13.18;11.70;;;13.80;47.70;;;;;;5017363;28;20180;-52
2022/12/12 03:59:39;;;;;;;11.65;10.45;;;13.80;47.70;;;;;;5015957;28;20197;-57
2022/12/12 04:02:09;;;;;;;12.20;11.00;;;13.80;47.50;;;;;;5015799;28;20224;-57
2022/12/12 04:04:39;;;;;;;13.07;11.18;;;13.70;47.50;;;;;;5015965;28;20196;-57
2022/12/12 04:07:09;;;;;;;12.60;10.88;;;13.70;47.50;;;;;;5015740;28;20284;-57
2022/12/12 04:15:19;;;;;;;12.63;11.32;;;13.70;47.50;;;;;;5015752;28;20201;-57
2022/12/12 04:17:52;;;;;;;12.13;10.88;;;13.70;47.30;;;;;;5015745;28;20197;-57
2022/12/12 04:23:16;;;;;;;12.82;11.52;;;13.70;47.90;;;;;;5015477;28;20796;-56
2022/12/12 04:28:58;;;;;;;13.00;11.70;;;13.60;47.50;;;;;;5015467;28;20193;-57
2022/12/12 04:31:26;;;;;;;13.75;12.10;;;13.60;47.50;;;;;;5015462;28;20251;-57
2022/12/12 04:33:56;;;;;;;12.95;11.65;;;13.60;47.40;;;;;;5015367;28;20188;-57
2022/12/12 04:36:25;;;;;;;13.23;11.27;;;13.60;47.40;;;;;;5015262;28;20201;-57
2022/12/12 04:38:52;;;;;;;11.93;10.73;;;13.70;47.40;;;;;;5015738;28;20200;-57
2022/12/12 04:41:19;;;;;;;11.57;10.38;;;13.70;47.40;;;;;;5016355;28;20774;-57
2022/12/12 04:43:47;;;;;;;11.10;10.00;;;13.70;47.40;;;;;;5015111;28;20608;-57
2022/12/12 04:46:16;;;;;;;11.55;10.43;;;13.80;47.20;;;;;;5015334;28;20274;-57
2022/12/12 04:48:46;;;;;;;12.90;11.57;;;13.80;47.00;;;;;;5017117;28;20204;-57
2022/12/12 04:51:14;;;;;;;11.00;9.88;;;13.80;46.90;;;;;;5016672;28;20212;-57
2022/12/12 04:53:45;;;;;;;11.45;10.25;;;13.90;47.20;;;;;;5015235;28;20235;-57
2022/12/12 04:56:13;;;;;;;11.88;10.68;;;13.80;47.00;;;;;;5015317;28;20208;-57
2022/12/12 04:58:40;;;;;;;12.13;10.40;;;13.90;46.80;;;;;;5015241;28;20197;-57
2022/12/12 05:01:09;;;;;;;12.40;11.15;;;13.90;47.00;;;;;;5016428;28;20279;-57
2022/12/12 05:03:40;;;;;;;12.10;10.70;;;13.90;47.10;;;;;;5015291;28;20304;-57
2022/12/12 05:06:08;;;;;;;12.40;11.10;;;13.90;46.80;;;;;;5015917;28;20300;-58
2022/12/12 05:08:36;;;;;;;12.40;11.18;;;13.90;46.60;;;;;;5015810;28;20284;-54
2022/12/12 05:11:06;;;;;;;12.13;10.25;;;13.90;46.40;;;;;;5017043;28;20217;-53
2022/12/12 05:13:35;;;;;;;11.68;10.50;;;13.90;46.20;;;;;;5015048;28;20204;-52
2022/12/12 05:16:03;;;;;;;12.73;10.93;;;14.00;46.30;;;;;;5014968;28;20197;-52
2022/12/12 05:18:30;;;;;;;11.50;10.30;;;14.00;46.30;;;;;;5016348;28;20547;-52
2022/12/12 05:20:58;;;;;;;11.45;10.30;;;14.00;46.00;;;;;;5015868;28;20208;-52
2022/12/12 05:23:25;;;;;;;11.82;10.15;;;14.10;46.10;;;;;;5015939;28;20216;-52
2022/12/12 05:25:52;;;;;;;11.60;10.00;;;14.10;46.10;;;;;;5014556;28;20564;-52
2022/12/12 05:28:21;;;;;;;10.65;9.63;;;14.10;45.90;;;;;;5014497;28;20259;-52
2022/12/12 05:30:48;;;;;;;10.85;9.75;;;14.20;46.00;;;;;;5014562;28;20220;-52
2022/12/12 05:33:16;;;;;;;11.88;10.68;;;14.20;46.20;;;;;;5014260;28;20687;-52
2022/12/12 05:35:43;;;;;;;11.50;10.30;;;14.20;45.90;;;;;;5015523;28;20607;-52
2022/12/12 05:38:10;;;;;;;12.50;10.35;;;14.20;45.80;;;;;;5014320;28;20307;-55
2022/12/12 05:40:38;;;;;;;10.65;9.55;;;14.20;45.60;;;;;;5014594;28;20220;-56
2022/12/12 05:43:05;;;;;;;11.60;10.27;;;14.20;46.30;;;;;;5015797;28;20248;-56
2022/12/12 05:45:35;;;;;;;12.23;10.35;;;14.30;46.00;;;;;;5013958;28;20259;-54
2022/12/12 05:48:02;;;;;;;11.07;9.98;;;14.30;45.80;;;;;;5013769;28;20236;-57
2022/12/12 05:50:29;;;;;;;12.65;11.32;;;14.30;46.50;;;;;;5015570;28;20266;-56
2022/12/12 05:52:57;;;;;;;11.80;10.60;;;14.40;46.40;;;;;;5015123;28;20236;-55
2022/12/12 05:55:24;;;;;;;11.80;10.60;;;14.40;46.90;;;;;;5015188;28;20227;-57
2022/12/12 05:57:51;;;;;;;12.40;10.82;;;14.40;46.90;;;;;;5014647;28;20201;-54
2022/12/12 06:00:18;;;;;;;11.77;10.60;;;14.40;47.20;;;;;;5013696;28;20324;-56
2022/12/12 06:02:47;;;;;;;11.95;10.75;;;14.50;47.40;;;;;;5014287;28;20197;-55
2022/12/12 06:05:14;;;;;;;11.48;10.13;;;14.50;47.40;;;;;;5015033;28;20255;-54
2022/12/12 06:07:41;;;;;;;11.40;10.25;;;14.50;47.50;;;;;;5013860;28;20292;-55
2022/12/12 06:10:09;;;;;;;11.88;10.57;;;14.50;47.40;;;;;;5013722;28;20225;-54
2022/12/12 06:12:36;;;;;;;12.05;10.77;;;14.60;47.70;;;;;;5013654;28;20262;-56
2022/12/12 06:15:03;;;;;;;13.23;11.57;;;14.60;48.20;;;;;;5014748;28;20717;-55
2022/12/12 06:17:30;;;;;;;11.93;10.43;;;14.60;48.20;;;;;;5013240;28;20201;-55
2022/12/12 06:19:58;;;;;;;12.70;11.40;;;14.70;47.70;;;;;;5014621;28;20220;-55
2022/12/12 06:22:25;;;;;;;10.30;9.30;;;14.70;46.90;;;;;;5014310;28;20663;-56
2022/12/12 06:24:52;;;;;;;10.50;9.40;;;14.70;46.80;;;;;;5013512;28;20201;-54
2022/12/12 06:27:20;;;;;;;12.32;11.02;;;14.70;47.20;;;;;;5013064;28;20211;-55
2022/12/12 06:29:47;;;;;;;11.20;9.85;;;14.70;46.10;;;;;;5014439;28;20552;-55
2022/12/12 06:32:14;;;;;;;12.27;10.70;;;14.70;46.40;;;;;;5014334;28;20258;-55
2022/12/12 06:34:42;;;;;;;11.95;10.68;;;14.70;46.00;;;;;;5012949;28;20611;-54
2022/12/12 06:37:10;;;;;;;12.30;10.70;;;14.70;45.50;;;;;;5014202;28;20223;-54
2022/12/12 06:39:38;;;;;;;11.48;10.27;;;14.70;45.60;;;;;;5014575;28;20231;-53
2022/12/12 06:42:05;;;;;;;11.90;10.68;;;14.70;45.40;;;;;;5012822;28;20706;-54
2022/12/12 06:44:32;;;;;;;10.98;9.32;;;14.70;45.30;;;;;;5013025;28;20733;-52
2022/12/12 06:46:59;;;;;;;10.57;9.48;;;14.70;45.30;;;;;;5014074;28;20216;-52
2022/12/12 06:49:26;;;;;;;10.35;9.35;;;14.70;45.10;;;;;;5014398;28;20192;-54
2022/12/12 06:51:54;;;;;;;12.55;10.25;;;14.70;45.30;;;;;;5014069;28;20213;-52
2022/12/12 06:54:22;;;;;;;11.35;10.15;;;14.70;45.20;;;;;;5014144;28;20235;-52
2022/12/12 06:56:49;;;;;;;11.18;9.52;;;14.70;45.70;;;;;;5012695;28;20224;-52
2022/12/12 06:59:18;;;;;;;12.25;9.93;;;14.70;45.30;;;;;;5013020;28;20629;-53
2022/12/12 07:01:45;;;;;;;11.38;10.15;;;14.70;45.70;;;;;;5015125;28;20623;-52
2022/12/12 07:04:13;;;;;;;11.93;9.98;;;14.70;45.20;;;;;;5014139;28;20653;-52
2022/12/12 07:06:40;;;;;;;13.05;10.10;;;14.70;44.80;;;;;;5015376;28;20303;-53
2022/12/12 07:09:07;;;;;;;10.73;9.63;;;14.70;45.50;;;;;;5013769;28;20262;-53
2022/12/12 07:11:36;;;;;;;10.73;9.63;;;14.80;45.20;;;;;;5013856;28;20209;-52
2022/12/12 07:14:04;;;;;;;10.00;8.90;;;14.80;44.60;;;;;;5012694;28;20201;-52
2022/12/12 07:16:31;;;;;;;9.60;8.60;;;14.80;44.20;;;;;;5012947;28;20196;-52
2022/12/12 07:19:00;;;;;;;11.77;9.65;;;14.90;44.80;;;;;;5013935;28;20271;-52
2022/12/12 07:21:27;;;;;;;9.52;8.60;;;14.90;44.60;;;;;;5012577;28;20266;-52
2022/12/12 07:23:54;;;;;;;11.48;10.02;;;14.90;44.40;;;;;;5011599;28;20243;-53
2022/12/12 07:26:22;;;;;;;11.25;10.05;;;15.00;44.20;;;;;;5013154;28;20250;-53
2022/12/12 07:28:53;;;;;;;11.68;10.25;;;14.90;44.00;;;;;;5012135;28;20743;-52
2022/12/12 07:31:23;;;;;;;9.88;8.88;;;14.90;44.00;;;;;;5012337;28;20311;-52
2022/12/12 07:33:50;;;;;;;10.23;9.13;;;15.00;44.40;;;;;;5013738;28;20209;-53
2022/12/12 07:36:18;;;;;;;11.05;9.45;;;15.00;44.00;;;;;;5013365;28;20184;-53
2022/12/12 07:38:45;;;;;;;11.43;9.52;;;15.00;44.10;;;;;;5012094;28;20658;-53
2022/12/12 07:41:14;;;;;;;9.63;8.60;;;15.00;44.60;;;;;;5013288;28;20292;-52
2022/12/12 07:43:42;;;;;;;10.45;8.82;;;15.00;44.30;;;;;;5025747;23;20253;-66
2022/12/12 07:46:12;;;;;;;8.88;7.97;;;15.00;43.80;;;;;;5015862;28;20195;-66
2022/12/12 07:48:39;;;;;;;12.02;10.43;;;15.00;44.10;;;;;;5033393;28;20208;-65
2022/12/12 07:51:06;;;;;;;11.10;10.00;;;15.00;43.30;;;;;;5015902;28;20200;-65
2022/12/12 07:53:32;;;;;;;11.40;9.35;;;15.00;43.70;;;;;;5034200;28;20273;-65
2022/12/12 07:55:59;;;;;;;9.70;8.57;;;15.10;43.70;;;;;;5015723;28;20712;-65
2022/12/12 07:58:27;;;;;;;11.05;9.15;;;15.10;43.90;;;;;;5015715;28;20220;-66
2022/12/12 08:00:54;;;;;;;9.85;8.85;;;15.10;43.60;;;;;;5033692;28;20188;-65
2022/12/12 08:03:23;;;;;;;11.60;9.73;;;15.10;43.80;;;;;;5033467;28;20192;-66
2022/12/12 08:05:50;;;;;;;11.02;9.52;;;15.10;43.30;;;;;;5015400;28;20286;-66
2022/12/12 08:08:17;;;;;;;10.27;8.65;;;15.10;43.80;;;;;;5015632;28;20259;-66
2022/12/12 08:10:44;;;;;;;10.52;9.43;;;15.10;43.70;;;;;;5015778;28;20701;-66
2022/12/12 08:13:11;;;;;;;9.95;8.57;;;15.10;43.40;;;;;;5015918;28;20690;-66
2022/12/12 08:15:39;;;;;;;9.57;8.48;;;15.10;43.50;;;;;;5015815;28;20200;-66
2022/12/12 08:18:06;;;;;;;10.98;9.77;;;15.20;43.60;;;;;;5016507;28;20216;-66
2022/12/12 08:20:34;;;;;;;10.00;8.90;;;15.10;43.30;;;;;;5015569;28;20238;-66
2022/12/12 08:23:01;;;;;;;8.93;8.02;;;15.20;44.00;;;;;;5015819;28;20663;-66
2022/12/12 08:25:28;;;;;;;11.60;9.43;;;15.20;43.80;;;;;;5015685;28;20200;-66
2022/12/12 08:27:55;;;;;;;10.80;9.63;;;15.10;43.30;;;;;;5015834;28;20219;-66
2022/12/12 08:30:22;;;;;;;10.35;9.30;;;15.10;43.20;;;;;;5015843;28;20230;-63
2022/12/12 08:32:49;;;;;;;10.80;9.35;;;15.20;43.60;;;;;;5016007;28;20216;-64
2022/12/12 08:35:17;;;;;;;8.80;7.90;;;15.20;43.60;;;;;;5033896;28;20223;-64
2022/12/12 08:37:45;;;;;;;10.20;9.20;;;15.10;43.50;;;;;;5038759;28;20708;-64
2022/12/12 08:40:12;;;;;;;8.90;8.00;;;15.20;43.10;;;;;;5019709;28;20208;-64
2022/12/12 08:42:39;;;;;;;9.85;8.85;;;15.20;43.90;;;;;;5019144;28;20200;-64
2022/12/12 08:45:07;;;;;;;9.70;8.57;;;15.20;43.70;;;;;;5019142;28;20207;-63
2022/12/12 08:47:34;;;;;;;10.70;9.60;;;15.20;43.90;;;;;;5037033;28;20212;-64
2022/12/12 08:50:01;;;;;;;91.30;26.13;;;15.20;43.60;;;;;;5019122;28;20231;-63
2022/12/12 08:52:28;;;;;;;76.00;24.40;;;15.20;49.20;;;;;;5019641;28;20220;-63
2022/12/12 08:54:56;;;;;;;59.05;20.25;;;15.10;53.60;;;;;;5019517;28;20533;-63
2022/12/12 08:57:23;;;;;;;80.65;25.33;;;15.20;54.50;;;;;;5018654;28;20255;-63
2022/12/12 09:00:12;;;;;;;311.58;227.90;;;15.20;55.30;;;;;;5037587;28;20558;-63
2022/12/12 09:02:40;;;;;;;247.65;78.68;;;15.20;54.40;;;;;;5018591;28;20196;-64
2022/12/12 09:05:08;;;;;;;155.93;48.25;;;15.20;54.60;;;;;;5018614;28;20202;-64
2022/12/12 09:07:35;;;;;;;146.23;45.67;;;15.20;55.60;;;;;;5018445;28;20286;-64
2022/12/12 09:10:05;;;;;;;145.63;47.92;;;15.30;56.90;;;;;;5018441;28;20196;-64
2022/12/12 09:12:32;;;;;;;144.82;46.67;;;15.30;56.80;;;;;;5036036;28;20295;-64
2022/12/12 09:14:59;;;;;;;302.23;81.63;;;15.30;56.50;;;;;;5036275;28;20203;-64
2022/12/12 09:17:26;;;;;;;182.80;51.67;;;15.30;57.10;;;;;;5018424;28;20212;-64
2022/12/12 09:19:53;;;;;;;117.78;38.53;;;15.40;58.10;;;;;;5035827;28;20187;-64
2022/12/12 09:22:20;;;;;;;90.85;33.10;;;15.40;58.50;;;;;;5035968;28;20520;-64
2022/12/12 09:24:46;;;;;;;74.00;29.83;;;15.40;56.60;;;;;;5018334;28;20696;-64
2022/12/12 09:27:15;;;;;;;63.88;25.67;;;15.50;57.50;;;;;;5018255;28;20184;-64
2022/12/12 09:29:42;;;;;;;56.72;24.02;;;15.50;57.20;;;;;;5018265;28;20200;-64
2022/12/12 09:32:09;;;;;;;53.17;22.00;;;15.50;57.70;;;;;;5036104;28;20200;-64
2022/12/12 09:34:37;;;;;;;49.72;21.77;;;15.50;55.90;;;;;;5018393;28;20208;-64
2022/12/12 09:37:04;;;;;;;39.78;19.42;;;15.50;57.60;;;;;;5018245;28;20609;-63
2022/12/12 09:39:32;;;;;;;43.60;20.33;;;15.60;54.80;;;;;;5018794;28;20211;-63
2022/12/12 09:42:09;;;;;;;46.55;19.70;;;15.60;55.60;;;;;;5018645;28;20565;-63
2022/12/12 09:44:37;;;;;;;42.35;19.33;;;15.60;56.20;;;;;;5019215;28;20203;-64
2022/12/12 09:47:06;;;;;;;41.63;19.60;;;15.70;57.40;;;;;;5017637;28;20210;-64
2022/12/12 09:49:36;;;;;;;41.22;19.30;;;15.60;55.50;;;;;;5018296;28;20267;-64
2022/12/12 09:52:03;;;;;;;42.33;17.75;;;15.70;56.00;;;;;;5036240;28;20180;-64
2022/12/12 09:54:31;;;;;;;38.70;18.92;;;15.70;51.80;;;;;;5018084;28;20246;-64
2022/12/12 09:57:04;;;;;;;40.40;16.80;;;15.70;54.60;;;;;;5018136;28;20196;-64
2022/12/12 09:59:37;;;;;;;41.95;18.08;;;15.70;50.70;;;;;;5036173;28;20561;-64
2022/12/12 10:02:12;;;;;;;38.70;16.77;;;15.80;51.10;;;;;;5018341;28;20274;-64
2022/12/12 10:04:39;;;;;;;38.65;17.48;;;15.80;53.30;;;;;;5019241;28;20279;-64
2022/12/12 10:07:10;;;;;;;34.30;17.80;;;15.90;54.40;;;;;;5017750;28;20192;-64
2022/12/12 10:09:42;;;;;;;39.42;17.95;;;15.90;56.60;;;;;;5018565;28;20200;-64
2022/12/12 10:12:12;;;;;;;33.88;16.85;;;15.90;55.60;;;;;;5018279;28;20242;-64
2022/12/12 10:14:42;;;;;;;34.10;16.40;;;15.90;55.20;;;;;;5018229;28;20677;-64
2022/12/12 10:17:11;;;;;;;30.10;16.55;;;15.90;54.20;;;;;;5017780;28;20219;-64
2022/12/12 10:19:44;;;;;;;35.33;17.00;;;16.00;57.60;;;;;;5036386;28;20214;-64
2022/12/12 10:22:15;;;;;;;27.63;15.05;;;16.00;57.80;;;;;;5017745;28;20256;-64
2022/12/12 10:24:44;;;;;;;29.75;15.05;;;16.00;53.60;;;;;;5018711;28;20288;-63
2022/12/12 10:27:12;;;;;;;33.53;16.35;;;16.00;52.30;;;;;;5017832;28;20200;-63
2022/12/12 10:29:41;;;;;;;31.60;15.25;;;16.00;54.30;;;;;;5017631;28;20717;-64
2022/12/12 10:32:12;;;;;;;27.42;15.63;;;16.00;54.90;;;;;;5017259;28;20250;-64
2022/12/12 10:34:46;;;;;;;27.35;15.65;;;16.00;56.80;;;;;;5018616;28;20216;-64
2022/12/12 10:37:23;;;;;;;30.92;16.13;;;16.00;54.90;;;;;;5018291;28;20188;-63
2022/12/12 10:39:55;;;;;;;26.75;15.52;;;16.00;55.70;;;;;;5017929;28;20203;-63
2022/12/12 10:42:25;;;;;;;24.08;14.77;;;16.00;55.40;;;;;;5017795;28;20231;-63
2022/12/12 10:45:01;;;;;;;22.50;14.18;;;16.00;56.20;;;;;;5035414;28;20246;-63
2022/12/12 10:47:29;;;;;;;24.85;13.80;;;15.90;55.00;;;;;;5035820;28;20679;-63
2022/12/12 10:49:58;;;;;;;26.63;14.75;;;16.00;55.30;;;;;;5017850;28;20219;-63
2022/12/12 10:52:25;;;;;;;26.57;15.47;;;15.90;55.00;;;;;;5017863;28;20505;-63
2022/12/12 10:54:54;;;;;;;24.75;15.10;;;15.90;55.20;;;;;;5035416;28;20188;-63
2022/12/12 10:57:23;;;;;;;25.52;14.23;;;15.90;54.90;;;;;;5001538;28;20201;-63
2022/12/12 10:59:51;;;;;;;22.83;14.00;;;15.90;55.00;;;;;;5035511;28;20232;-63
2022/12/12 11:02:27;;;;;;;21.83;14.10;;;15.90;55.40;;;;;;5035545;28;20554;-63
2022/12/12 11:05:02;;;;;;;21.85;12.55;;;15.90;56.90;;;;;;5018367;28;20265;-63
2022/12/12 11:07:29;;;;;;;23.52;11.80;;;15.80;50.60;;;;;;5018556;28;20338;-64
2022/12/12 11:09:57;;;;;;;22.15;12.48;;;15.80;52.80;;;;;;5018705;28;20203;-64
2022/12/12 11:12:33;;;;;;;21.02;11.88;;;15.80;55.50;;;;;;5020692;28;20204;-64
2022/12/12 11:15:04;;;;;;;23.15;13.40;;;15.80;54.50;;;;;;5025731;28;20196;-64
2022/12/12 11:17:33;;;;;;;21.33;12.23;;;15.80;56.00;;;;;;5019145;28;20690;-64
2022/12/12 11:20:02;;;;;;;17.88;11.20;;;15.90;54.80;;;;;;5018287;28;20204;-64
2022/12/12 11:22:31;;;;;;;19.00;11.55;;;15.90;48.30;;;;;;5018048;28;20258;-64
2022/12/12 11:24:59;;;;;;;19.15;12.18;;;15.90;47.50;;;;;;5036651;28;20270;-64
2022/12/12 11:27:28;;;;;;;19.95;11.10;;;15.90;47.10;;;;;;5038838;28;20208;-64
2022/12/12 11:29:56;;;;;;;16.63;10.23;;;15.90;47.40;;;;;;5020867;28;20214;-64
2022/12/12 11:32:24;;;;;;;19.88;12.15;;;16.00;47.10;;;;;;5016289;28;20450;-64
2022/12/12 11:34:53;;;;;;;19.80;11.18;;;16.00;47.50;;;;;;5016257;28;20227;-64
2022/12/12 11:37:21;;;;;;;15.50;10.25;;;16.10;47.30;;;;;;5016131;28;20203;-64
2022/12/12 11:39:50;;;;;;;17.58;9.95;;;16.10;47.60;;;;;;5033803;28;20598;-64
2022/12/12 11:42:19;;;;;;;15.25;9.77;;;16.10;47.70;;;;;;5033720;28;20588;-64
2022/12/12 11:44:48;;;;;;;18.02;10.32;;;16.10;47.90;;;;;;5016313;28;20210;-64
2022/12/12 11:47:23;;;;;;;14.80;9.45;;;16.20;47.60;;;;;;5016073;28;20731;-64
2022/12/12 11:49:52;;;;;;;18.85;9.88;;;16.20;47.80;;;;;;5033940;28;20195;-64
2022/12/12 11:52:20;;;;;;;15.15;9.38;;;16.30;47.70;;;;;;5015735;28;20701;-64
2022/12/12 11:54:48;;;;;;;12.75;9.13;;;16.30;47.90;;;;;;5016055;28;20220;-64
2022/12/12 11:57:18;;;;;;;16.48;9.48;;;16.30;47.30;;;;;;5015552;28;20200;-64
2022/12/12 11:59:56;;;;;;;16.88;10.02;;;16.30;47.00;;;;;;5015546;28;20195;-64
2022/12/12 12:02:45;;;;;;;15.50;9.80;;;16.30;46.80;;;;;;5015799;28;20711;-64
2022/12/12 12:05:21;;;;;;;15.57;9.65;;;16.40;46.60;;;;;;5015625;28;20246;-64
2022/12/12 12:07:55;;;;;;;16.52;9.30;;;16.40;46.30;;;;;;5015690;28;20713;-64
2022/12/12 12:10:29;;;;;;;15.43;9.02;;;16.50;45.90;;;;;;5015753;28;20200;-64
2022/12/12 12:13:00;;;;;;;14.38;9.25;;;16.50;46.00;;;;;;5019216;28;20227;-64
2022/12/12 12:15:35;;;;;;;15.52;8.82;;;16.40;45.40;;;;;;5019390;28;20196;-64
2022/12/12 12:18:21;;;;;;;14.65;9.52;;;16.50;45.50;;;;;;5019116;28;20817;-64
2022/12/12 12:21:18;;;;;;;15.65;9.02;;;16.50;45.80;;;;;;5019923;28;20258;-65
2022/12/12 12:23:49;;;;;;;13.30;8.75;;;16.50;45.20;;;;;;5020182;28;20283;-64
2022/12/12 12:26:17;;;;;;;16.48;9.75;;;16.50;45.60;;;;;;5020930;28;20197;-64
2022/12/12 12:29:02;;;;;;;16.02;9.23;;;16.50;45.10;;;;;;5019390;28;20281;-64
2022/12/12 12:31:32;;;;;;;12.65;8.10;;;16.50;44.90;;;;;;5019245;28;20185;-64
2022/12/12 12:34:04;;;;;;;12.77;8.82;;;16.50;45.20;;;;;;5037050;28;20208;-64
2022/12/12 12:36:36;;;;;;;14.48;9.15;;;16.50;44.80;;;;;;5019111;28;20197;-64
2022/12/12 12:39:04;;;;;;;11.93;8.15;;;16.50;44.50;;;;;;5019069;28;20223;-64
2022/12/12 12:41:52;;;;;;;13.85;8.00;;;16.50;44.50;;;;;;5037057;28;20192;-64
2022/12/12 12:44:40;;;;;;;13.43;7.80;;;16.50;44.50;;;;;;5018662;28;20257;-63
2022/12/12 12:47:12;;;;;;;12.07;8.45;;;16.40;44.30;;;;;;5019521;28;20189;-63
2022/12/12 12:49:41;;;;;;;12.90;8.07;;;16.40;44.60;;;;;;5018867;28;20200;-64
2022/12/12 12:52:10;;;;;;;13.75;8.52;;;16.40;44.20;;;;;;5018684;28;20651;-64
2022/12/12 12:54:38;;;;;;;11.65;7.85;;;16.40;44.00;;;;;;5036531;28;20207;-64
2022/12/12 12:57:07;;;;;;;11.98;7.43;;;16.40;44.30;;;;;;5036288;28;20594;-63
2022/12/12 12:59:36;;;;;;;11.63;8.20;;;16.40;43.90;;;;;;5018628;28;20207;-64